createdAt,value
2017-09-21T00:01:15.964Z,39.67
2017-09-21T00:03:43.534Z,45.33
2017-09-21T00:06:11.157Z,44.42
2017-09-21T00:08:38.775Z,52.10
2017-09-21T00:11:07.126Z,38.97
2017-09-21T00:13:42.062Z,43.40
2017-09-21T00:16:09.619Z,43.25
2017-09-21T00:18:37.150Z,41.70
2017-09-21T00:21:04.736Z,39.58
2017-09-21T00:23:33.291Z,40.22
2017-09-21T00:26:00.864Z,44.85
2017-09-21T00:28:28.436Z,42.40
2017-09-21T00:30:56.092Z,41.92
2017-09-21T00:33:30.606Z,43.17
2017-09-21T00:35:58.278Z,38.15
2017-09-21T00:38:25.806Z,42.38
2017-09-21T00:40:53.396Z,42.03
2017-09-21T00:43:22.898Z,35.78
2017-09-21T00:45:50.521Z,38.33
2017-09-21T00:48:18.862Z,39.35
2017-09-21T00:50:46.489Z,42.70
2017-09-21T00:53:14.047Z,38.25
2017-09-21T00:55:41.621Z,38.15
2017-09-21T00:58:09.145Z,38.55
2017-09-21T01:00:36.784Z,34.60
2017-09-21T01:03:14.768Z,35.50
2017-09-21T01:05:42.365Z,40.50
2017-09-21T01:08:10.739Z,41.92
2017-09-21T01:10:38.351Z,36.55
2017-09-21T01:13:05.920Z,32.65
2017-09-21T01:15:33.536Z,33.25
2017-09-21T01:18:01.845Z,34.08
2017-09-21T01:20:29.435Z,31.58
2017-09-21T01:23:00.323Z,32.97
2017-09-21T01:25:28.625Z,29.87
2017-09-21T01:27:56.227Z,32.10
2017-09-21T01:30:23.809Z,31.17
2017-09-21T01:32:58.124Z,29.63
2017-09-21T01:35:25.748Z,27.92
2017-09-21T01:37:53.369Z,26.37
2017-09-21T01:40:21.769Z,26.08
2017-09-21T01:42:49.350Z,30.55
2017-09-21T01:45:16.967Z,28.27
2017-09-21T01:47:44.529Z,30.62
2017-09-21T01:50:12.905Z,37.63
2017-09-21T01:52:40.434Z,32.97
2017-09-21T01:55:08.062Z,39.58
2017-09-21T01:57:35.615Z,33.65
2017-09-21T02:00:03.243Z,34.08
2017-09-21T02:02:30.893Z,36.33
2017-09-21T02:04:58.801Z,40.22
2017-09-21T02:07:26.423Z,35.40
2017-09-21T02:09:54.066Z,31.17
2017-09-21T02:12:21.670Z,35.90
2017-09-21T02:14:49.234Z,32.90
2017-09-21T02:17:16.801Z,30.75
2017-09-21T02:19:44.397Z,29.67
2017-09-21T02:22:11.997Z,28.60
2017-09-21T02:24:39.600Z,34.15
2017-09-21T02:27:07.193Z,33.50
2017-09-21T02:29:34.752Z,36.15
2017-09-21T02:32:02.353Z,35.28
2017-09-21T02:34:29.885Z,33.17
2017-09-21T02:36:57.530Z,38.33
2017-09-21T02:39:25.099Z,38.88
2017-09-21T02:41:52.768Z,41.67
2017-09-21T02:44:27.426Z,38.40
2017-09-21T02:46:55.762Z,42.15
2017-09-21T02:49:23.370Z,58.17
2017-09-21T02:51:51.729Z,43.55
2017-09-21T02:54:19.257Z,44.75
2017-09-21T02:56:46.879Z,47.78
2017-09-21T02:59:15.220Z,47.53
2017-09-21T03:01:42.777Z,40.20
2017-09-21T03:04:20.443Z,42.08
2017-09-21T03:06:48.036Z,42.67
2017-09-21T03:09:15.558Z,42.13
2017-09-21T03:11:43.167Z,47.78
2017-09-21T03:14:10.745Z,42.28
2017-09-21T03:16:38.301Z,45.58
2017-09-21T03:19:05.942Z,46.17
2017-09-21T03:21:33.565Z,43.63
2017-09-21T03:24:15.170Z,42.45
2017-09-21T03:26:42.737Z,39.70
2017-09-21T03:29:10.236Z,44.33
2017-09-21T03:31:37.772Z,40.58
2017-09-21T03:34:05.382Z,40.92
2017-09-21T03:36:32.921Z,38.60
2017-09-21T03:39:01.236Z,42.00
2017-09-21T03:41:28.834Z,45.03
2017-09-21T03:43:56.433Z,49.70
2017-09-21T03:46:24.766Z,45.97
2017-09-21T03:48:52.312Z,43.80
2017-09-21T03:51:20.091Z,42.08
2017-09-21T03:53:47.631Z,43.20
2017-09-21T03:56:15.172Z,38.78
2017-09-21T03:58:42.748Z,41.88
2017-09-21T04:01:10.328Z,44.75
2017-09-21T04:03:37.868Z,37.40
2017-09-21T04:06:05.481Z,42.38
2017-09-21T04:08:33.049Z,42.88
2017-09-21T04:11:01.416Z,42.92
2017-09-21T04:13:29.000Z,47.28
2017-09-21T04:15:57.317Z,44.20
2017-09-21T04:18:24.854Z,42.65
2017-09-21T04:20:52.397Z,46.00
2017-09-21T04:23:20.695Z,48.85
2017-09-21T04:25:48.324Z,45.88
2017-09-21T04:28:15.832Z,51.10
2017-09-21T04:30:43.426Z,54.33
2017-09-21T04:33:11.028Z,47.22
2017-09-21T04:35:39.356Z,46.50
2017-09-21T04:38:06.875Z,50.10
2017-09-21T04:40:34.753Z,52.15
2017-09-21T04:43:02.281Z,52.28
2017-09-21T04:45:29.830Z,50.40
2017-09-21T04:47:57.354Z,49.45
2017-09-21T04:50:24.870Z,53.45
2017-09-21T04:52:52.367Z,45.88
2017-09-21T04:55:19.900Z,50.70
2017-09-21T04:57:48.176Z,49.28
2017-09-21T05:00:16.498Z,44.28
2017-09-21T05:02:44.019Z,52.85
2017-09-21T05:05:11.612Z,48.42
2017-09-21T05:07:39.124Z,45.22
2017-09-21T05:10:06.652Z,49.75
2017-09-21T05:12:34.161Z,49.97
2017-09-21T05:15:02.528Z,47.47
2017-09-21T05:17:30.808Z,48.45
2017-09-21T05:19:59.095Z,43.70
2017-09-21T05:22:27.363Z,42.45
2017-09-21T05:24:55.690Z,43.25
2017-09-21T05:27:23.235Z,44.47
2017-09-21T05:29:50.767Z,45.15
2017-09-21T05:32:19.028Z,46.67
2017-09-21T05:34:46.591Z,46.28
2017-09-21T05:37:14.905Z,44.40
2017-09-21T05:39:42.451Z,44.60
2017-09-21T05:42:09.996Z,47.85
2017-09-21T05:44:37.557Z,42.65
2017-09-21T05:47:05.136Z,40.12
2017-09-21T05:49:32.657Z,41.90
2017-09-21T05:52:00.992Z,50.35
2017-09-21T05:54:28.620Z,39.83
2017-09-21T05:56:56.932Z,37.90
2017-09-21T05:59:24.474Z,39.60
2017-09-21T06:01:52.986Z,44.30
2017-09-21T06:04:20.519Z,40.50
2017-09-21T06:06:48.784Z,37.22
2017-09-21T06:09:17.084Z,38.70
2017-09-21T06:11:44.595Z,43.95
2017-09-21T06:14:12.120Z,39.33
2017-09-21T06:16:39.604Z,37.88
2017-09-21T06:19:07.121Z,42.85
2017-09-21T06:21:34.612Z,33.97
2017-09-21T06:24:02.130Z,38.90
2017-09-21T06:26:29.622Z,34.15
2017-09-21T06:28:57.136Z,29.35
2017-09-21T06:31:25.404Z,31.90
2017-09-21T06:33:52.920Z,31.92
2017-09-21T06:36:20.420Z,33.58
2017-09-21T06:38:50.177Z,39.28
2017-09-21T06:41:17.768Z,29.10
2017-09-21T06:43:45.607Z,29.02
2017-09-21T06:46:13.163Z,31.58
2017-09-21T06:48:40.689Z,25.27
2017-09-21T06:51:08.968Z,24.52
2017-09-21T06:53:37.867Z,24.23
2017-09-21T06:56:05.947Z,28.08
2017-09-21T06:58:34.084Z,28.90
2017-09-21T07:01:01.631Z,34.00
2017-09-21T07:03:29.185Z,26.75
2017-09-21T07:05:56.776Z,28.17
2017-09-21T07:08:25.128Z,29.70
2017-09-21T07:10:52.677Z,24.05
2017-09-21T07:13:20.228Z,24.98
2017-09-21T07:15:47.736Z,27.23
2017-09-21T07:18:16.087Z,31.05
2017-09-21T07:20:43.615Z,27.95
2017-09-21T07:23:11.154Z,26.87
2017-09-21T07:25:38.736Z,28.95
2017-09-21T07:28:06.259Z,25.33
2017-09-21T07:30:34.547Z,24.40
2017-09-21T07:33:02.844Z,27.37
2017-09-21T07:35:30.378Z,24.80
2017-09-21T07:37:57.932Z,30.73
2017-09-21T07:40:25.533Z,27.52
2017-09-21T07:42:53.072Z,25.33
2017-09-21T07:45:20.637Z,21.80
2017-09-21T07:47:48.178Z,26.55
2017-09-21T07:50:15.783Z,25.80
2017-09-21T07:52:43.292Z,21.52
2017-09-21T07:55:10.814Z,28.42
2017-09-21T07:57:38.325Z,28.83
2017-09-21T08:00:06.634Z,26.58
2017-09-21T08:02:34.158Z,24.08
2017-09-21T08:05:02.479Z,25.42
2017-09-21T08:07:29.988Z,26.42
2017-09-21T08:09:58.298Z,25.80
2017-09-21T08:12:25.821Z,25.85
2017-09-21T08:14:54.128Z,27.23
2017-09-21T08:17:21.651Z,27.65
2017-09-21T08:19:49.973Z,26.62
2017-09-21T08:22:17.496Z,27.40
2017-09-21T08:24:45.034Z,25.98
2017-09-21T08:27:12.561Z,24.77
2017-09-21T08:29:40.121Z,20.33
2017-09-21T08:32:07.647Z,24.50
2017-09-21T08:34:35.181Z,24.60
2017-09-21T08:37:02.692Z,22.52
2017-09-21T08:39:30.226Z,21.55
2017-09-21T08:41:58.557Z,23.87
2017-09-21T08:44:26.123Z,21.80
2017-09-21T08:46:53.701Z,27.62
2017-09-21T08:49:21.282Z,24.92
2017-09-21T08:51:48.804Z,24.90
2017-09-21T08:54:16.341Z,26.65
2017-09-21T08:56:43.862Z,28.75
2017-09-21T08:59:11.400Z,29.83
2017-09-21T09:01:38.930Z,24.43
2017-09-21T09:04:06.470Z,24.77
2017-09-21T09:06:34.012Z,28.05
2017-09-21T09:09:02.345Z,30.30
2017-09-21T09:11:29.934Z,28.17
2017-09-21T09:13:57.603Z,33.40
2017-09-21T09:16:25.170Z,30.05
2017-09-21T09:18:53.514Z,32.58
2017-09-21T09:21:21.077Z,29.12
2017-09-21T09:23:48.635Z,26.52
2017-09-21T09:26:16.144Z,24.60
2017-09-21T09:28:44.446Z,28.17
2017-09-21T09:31:11.961Z,27.45
2017-09-21T09:33:39.493Z,24.00
2017-09-21T09:36:07.006Z,28.00
2017-09-21T09:38:34.533Z,31.20
2017-09-21T09:41:02.045Z,26.83
2017-09-21T09:43:29.577Z,24.05
2017-09-21T09:45:57.113Z,24.33
2017-09-21T09:48:24.667Z,25.80
2017-09-21T09:50:52.187Z,39.78
2017-09-21T09:53:19.715Z,25.95
2017-09-21T09:55:48.005Z,27.67
2017-09-21T09:58:15.674Z,23.50
2017-09-21T10:00:43.189Z,26.50
2017-09-21T10:03:10.737Z,25.05
2017-09-21T10:05:38.359Z,23.98
2017-09-21T10:08:05.945Z,31.60
2017-09-21T10:10:33.484Z,26.63
2017-09-21T10:13:01.051Z,25.43
2017-09-21T10:15:28.648Z,24.17
2017-09-21T10:17:56.193Z,25.77
2017-09-21T10:20:23.751Z,22.60
2017-09-21T10:22:51.287Z,25.57
2017-09-21T10:25:18.842Z,22.27
2017-09-21T10:27:46.421Z,30.67
2017-09-21T10:30:13.950Z,20.73
2017-09-21T10:32:42.291Z,20.13
2017-09-21T10:35:09.838Z,19.63
2017-09-21T10:37:37.428Z,18.57
2017-09-21T10:40:05.721Z,22.63
2017-09-21T10:42:34.090Z,17.57
2017-09-21T10:45:02.400Z,19.15
2017-09-21T10:47:29.962Z,16.90
2017-09-21T10:49:57.514Z,16.93
2017-09-21T10:52:25.091Z,13.43
2017-09-21T10:54:52.636Z,14.98
2017-09-21T10:57:20.179Z,15.83
2017-09-21T10:59:47.754Z,17.23
2017-09-21T11:02:15.284Z,14.02
2017-09-21T11:04:42.800Z,13.50
2017-09-21T11:07:10.344Z,13.97
2017-09-21T11:09:37.959Z,14.67
2017-09-21T11:12:05.512Z,10.10
2017-09-21T11:14:33.075Z,15.87
2017-09-21T11:17:00.624Z,9.20
2017-09-21T11:19:28.154Z,8.70
2017-09-21T11:21:55.691Z,7.47
2017-09-21T11:24:23.236Z,7.93
2017-09-21T11:26:51.547Z,11.97
2017-09-21T11:29:19.862Z,7.60
2017-09-21T11:31:47.424Z,9.53
2017-09-21T11:34:18.959Z,12.33
2017-09-21T11:36:46.506Z,11.80
2017-09-21T11:39:14.066Z,8.97
2017-09-21T11:41:41.651Z,12.10
2017-09-21T11:44:09.205Z,10.47
2017-09-21T11:46:36.750Z,10.47
2017-09-21T11:49:05.189Z,11.47
2017-09-21T11:51:32.772Z,11.10
2017-09-21T11:54:00.328Z,9.03
2017-09-21T11:56:27.930Z,12.27
2017-09-21T11:58:55.528Z,13.73
2017-09-21T12:01:23.127Z,9.53
2017-09-21T12:03:51.727Z,11.80
2017-09-21T12:06:19.285Z,17.13
2017-09-21T12:08:46.885Z,11.90
2017-09-21T12:11:15.213Z,13.20
2017-09-21T12:13:43.912Z,9.40
2017-09-21T12:16:11.454Z,16.57
2017-09-21T12:18:39.175Z,14.80
2017-09-21T12:21:06.777Z,13.53
2017-09-21T12:23:35.716Z,10.57
2017-09-21T12:26:05.355Z,18.67
2017-09-21T12:28:40.767Z,10.30
2017-09-21T12:31:08.436Z,14.57
2017-09-21T12:33:41.102Z,13.80
2017-09-21T12:36:08.691Z,13.37
2017-09-21T12:38:40.453Z,13.20
2017-09-21T12:41:08.263Z,15.03
2017-09-21T12:43:36.893Z,12.27
2017-09-21T12:46:04.510Z,9.30
2017-09-21T12:48:32.035Z,16.70
2017-09-21T12:50:59.589Z,14.23
2017-09-21T12:53:37.993Z,12.90
2017-09-21T12:56:05.548Z,13.03
2017-09-21T12:58:33.215Z,18.83
2017-09-21T13:01:00.869Z,16.80
2017-09-21T13:03:35.515Z,11.43
2017-09-21T13:06:03.132Z,13.50
2017-09-21T13:08:30.741Z,21.40
2017-09-21T13:10:58.308Z,13.33
2017-09-21T13:13:26.657Z,11.23
2017-09-21T13:15:54.219Z,10.97
2017-09-21T13:18:21.794Z,8.70
2017-09-21T13:20:50.277Z,16.07
2017-09-21T13:26:09.805Z,14.20
2017-09-21T13:28:37.383Z,16.90
2017-09-21T13:31:27.200Z,10.63
2017-09-21T13:33:54.877Z,12.23
2017-09-21T13:36:32.305Z,14.70
2017-09-21T13:38:59.849Z,9.83
2017-09-21T13:41:27.379Z,10.23
2017-09-21T13:43:54.896Z,10.53
2017-09-21T13:46:22.433Z,11.00
2017-09-21T13:48:49.936Z,8.63
2017-09-21T13:51:18.277Z,12.27
2017-09-21T13:53:48.859Z,11.43
2017-09-21T13:56:16.445Z,9.73
2017-09-21T13:58:43.972Z,11.10
2017-09-21T14:01:12.265Z,10.23
2017-09-21T14:03:39.793Z,11.73
2017-09-21T14:06:08.132Z,11.50
2017-09-21T14:08:35.629Z,9.87
2017-09-21T14:11:03.950Z,10.93
2017-09-21T14:13:31.502Z,13.23
2017-09-21T14:15:59.908Z,9.73
2017-09-21T14:18:27.453Z,14.23
2017-09-21T14:20:55.363Z,15.00
2017-09-21T14:23:22.889Z,12.90
2017-09-21T14:25:50.423Z,10.90
2017-09-21T14:28:18.148Z,9.30
2017-09-21T14:30:46.450Z,10.20
2017-09-21T14:33:14.909Z,11.10
2017-09-21T14:35:43.205Z,10.73
2017-09-21T14:38:10.772Z,10.87
2017-09-21T14:40:38.310Z,11.10
2017-09-21T14:43:06.617Z,10.50
2017-09-21T14:45:34.158Z,11.50
2017-09-21T14:48:01.656Z,12.80
2017-09-21T14:50:29.198Z,9.30
2017-09-21T14:52:56.715Z,7.70
2017-09-21T14:55:25.013Z,10.03
2017-09-21T14:57:52.573Z,12.17
2017-09-21T15:00:20.145Z,12.40
2017-09-21T15:02:47.704Z,11.13
2017-09-21T15:05:15.323Z,11.73
2017-09-21T15:07:43.616Z,9.97
2017-09-21T15:10:11.190Z,9.23
2017-09-21T15:12:38.726Z,11.70
2017-09-21T15:15:06.306Z,8.67
2017-09-21T15:17:33.843Z,11.37
2017-09-21T15:20:01.472Z,11.50
2017-09-21T15:22:29.058Z,10.70
2017-09-21T15:24:57.363Z,10.87
2017-09-21T15:27:24.905Z,11.33
2017-09-21T15:29:53.192Z,7.77
2017-09-21T15:32:20.737Z,8.83
2017-09-21T15:34:48.251Z,6.50
2017-09-21T15:37:15.812Z,6.13
2017-09-21T15:39:43.335Z,13.13
2017-09-21T15:42:14.425Z,6.80
2017-09-21T15:44:41.933Z,5.20
2017-09-21T15:47:10.195Z,5.40
2017-09-21T15:49:37.709Z,5.37
2017-09-21T15:52:05.237Z,6.00
2017-09-21T15:54:32.764Z,6.70
2017-09-21T15:57:00.307Z,5.50
2017-09-21T15:59:27.830Z,4.90
2017-09-21T16:01:55.362Z,5.93
2017-09-21T16:04:22.884Z,6.63
2017-09-21T16:06:51.177Z,6.97
2017-09-21T16:09:19.121Z,11.77
2017-09-21T16:11:46.685Z,9.67
2017-09-21T16:14:14.264Z,6.67
2017-09-21T16:16:41.921Z,7.87
2017-09-21T16:19:09.449Z,5.47
2017-09-21T16:21:37.024Z,5.80
2017-09-21T16:24:04.599Z,5.93
2017-09-21T16:26:32.230Z,5.50
2017-09-21T16:28:59.782Z,5.83
2017-09-21T16:31:27.415Z,5.07
2017-09-21T16:33:54.952Z,5.13
2017-09-21T16:36:22.541Z,5.43
2017-09-21T16:38:50.063Z,37.37
2017-09-21T16:41:17.618Z,8.43
2017-09-21T16:43:45.182Z,5.07
2017-09-21T16:46:12.765Z,9.23
2017-09-21T16:48:40.282Z,8.10
2017-09-21T16:51:08.074Z,5.80
2017-09-21T16:53:35.613Z,4.70
2017-09-21T16:56:10.084Z,6.80
2017-09-21T16:58:37.601Z,5.83
2017-09-21T17:01:05.166Z,6.87
2017-09-21T17:03:32.717Z,5.20
2017-09-21T17:06:00.317Z,8.35
2017-09-21T17:08:27.871Z,7.57
2017-09-21T17:10:55.445Z,7.10
2017-09-21T17:13:23.112Z,8.20
2017-09-21T17:15:50.700Z,7.63
2017-09-21T17:18:23.997Z,8.20
2017-09-21T17:20:51.578Z,7.00
2017-09-21T17:23:19.200Z,6.57
2017-09-21T17:25:46.729Z,7.43
2017-09-21T17:28:14.245Z,7.10
2017-09-21T17:30:41.785Z,6.75
2017-09-21T17:33:10.086Z,7.32
2017-09-21T17:35:37.897Z,8.67
2017-09-21T17:38:05.474Z,7.97
2017-09-21T17:40:33.052Z,8.97
2017-09-21T17:43:00.610Z,8.40
2017-09-21T17:45:29.018Z,9.20
2017-09-21T17:47:56.545Z,8.70
2017-09-21T17:50:24.923Z,6.70
2017-09-21T17:52:53.226Z,10.57
2017-09-21T17:55:20.854Z,8.13
2017-09-21T17:57:49.182Z,10.23
2017-09-21T18:00:16.792Z,9.30
2017-09-21T18:02:44.340Z,9.07
2017-09-21T18:05:11.884Z,9.20
2017-09-21T18:07:39.408Z,7.68
2017-09-21T18:10:07.880Z,8.60
2017-09-21T18:12:39.903Z,8.80
2017-09-21T18:15:07.465Z,9.60
2017-09-21T18:17:43.269Z,8.30
2017-09-21T18:20:10.833Z,7.32
2017-09-21T18:22:46.889Z,10.55
2017-09-21T18:25:14.414Z,8.10
2017-09-21T18:27:42.716Z,8.60
2017-09-21T18:30:10.328Z,8.45
2017-09-21T18:32:37.869Z,9.10
2017-09-21T18:35:05.495Z,6.15
2017-09-21T18:37:33.091Z,8.15
2017-09-21T18:40:00.656Z,9.38
2017-09-21T18:42:29.048Z,7.25
2017-09-21T18:44:57.413Z,10.95
2017-09-21T18:47:24.984Z,8.40
2017-09-21T18:49:52.544Z,12.32
2017-09-21T18:52:20.071Z,9.73
2017-09-21T18:54:47.654Z,9.38
2017-09-21T18:57:15.254Z,9.63
2017-09-21T18:59:42.858Z,9.68
2017-09-21T19:02:10.477Z,8.88
2017-09-21T19:04:38.139Z,17.87
2017-09-21T19:07:05.707Z,9.52
2017-09-21T19:09:33.325Z,10.38
2017-09-21T19:12:00.885Z,11.10
2017-09-21T19:14:29.205Z,11.35
2017-09-21T19:16:56.763Z,16.87
2017-09-21T19:19:24.407Z,14.05
2017-09-21T19:21:52.010Z,10.38
2017-09-21T19:24:19.600Z,13.52
2017-09-21T19:26:47.940Z,7.93
2017-09-21T19:29:15.512Z,13.27
2017-09-21T19:31:43.074Z,16.87
2017-09-21T19:34:10.636Z,19.33
2017-09-21T19:36:38.337Z,14.38
2017-09-21T19:39:05.912Z,11.38
2017-09-21T19:41:33.575Z,14.68
2017-09-21T19:44:01.194Z,15.55
2017-09-21T19:46:29.582Z,14.52
2017-09-21T19:48:57.926Z,15.70
2017-09-21T19:51:25.508Z,16.30
2017-09-21T19:53:58.098Z,14.80
2017-09-21T19:56:26.499Z,18.05
2017-09-21T19:58:54.166Z,15.02
2017-09-21T20:01:21.829Z,13.23
2017-09-21T20:07:06.412Z,12.85
2017-09-21T20:09:34.160Z,15.88
2017-09-21T20:12:01.785Z,18.75
2017-09-21T20:14:29.369Z,13.40
2017-09-21T20:16:57.710Z,16.48
2017-09-21T20:19:25.275Z,16.45
2017-09-21T20:21:52.822Z,16.52
2017-09-21T20:24:20.389Z,16.00
2017-09-21T20:26:50.245Z,17.00
2017-09-21T20:29:17.858Z,14.50
2017-09-21T20:31:46.466Z,16.00
2017-09-21T20:34:14.434Z,22.13
2017-09-21T20:36:42.050Z,21.30
2017-09-21T20:39:09.735Z,18.50
2017-09-21T20:41:38.098Z,19.67
2017-09-21T20:44:05.721Z,17.35
2017-09-21T20:46:33.352Z,15.77
2017-09-21T20:49:00.961Z,17.27
2017-09-21T20:51:33.912Z,19.37
2017-09-21T20:54:02.602Z,14.65
2017-09-21T20:56:30.206Z,16.77
2017-09-21T20:59:07.160Z,14.32
2017-09-21T21:01:35.001Z,23.20
2017-09-21T21:04:02.827Z,17.75
2017-09-21T21:06:30.674Z,17.15
2017-09-21T21:08:58.579Z,18.00
2017-09-21T21:11:26.370Z,18.50
2017-09-21T21:13:54.227Z,19.05
2017-09-21T21:16:22.056Z,22.20
2017-09-21T21:18:49.867Z,17.77
2017-09-21T21:21:17.649Z,17.60
2017-09-21T21:23:45.482Z,17.98
2017-09-21T21:26:13.385Z,18.75
2017-09-21T21:28:44.019Z,21.40
2017-09-21T21:31:11.872Z,17.80
2017-09-21T21:33:40.627Z,18.45
2017-09-21T21:36:08.446Z,19.58
2017-09-21T21:38:36.261Z,16.35
2017-09-21T21:41:04.171Z,20.37
2017-09-21T21:43:45.953Z,20.33
2017-09-21T21:46:13.850Z,19.87
2017-09-21T21:48:41.599Z,19.40
2017-09-21T21:51:09.476Z,15.57
2017-09-21T21:53:37.141Z,18.30
2017-09-21T21:56:04.957Z,18.90
2017-09-21T21:58:32.665Z,19.55
2017-09-21T22:01:00.365Z,19.00
2017-09-21T22:03:28.063Z,20.10
2017-09-21T22:05:55.886Z,20.55
2017-09-21T22:08:23.592Z,14.30
2017-09-21T22:10:51.270Z,18.83
2017-09-21T22:13:20.400Z,17.30
2017-09-21T22:15:48.063Z,18.05
2017-09-21T22:18:15.792Z,18.40
2017-09-21T22:20:43.519Z,18.58
2017-09-21T22:23:11.180Z,17.75
2017-09-21T22:25:38.913Z,18.15
2017-09-21T22:28:06.583Z,20.05
2017-09-21T22:30:34.285Z,20.00
2017-09-21T22:33:02.117Z,21.42
2017-09-21T22:35:31.165Z,16.50
2017-09-21T22:37:58.995Z,20.08
2017-09-21T22:40:26.646Z,16.05
2017-09-21T22:42:54.398Z,21.45
2017-09-21T22:45:22.120Z,21.52
2017-09-21T22:47:49.862Z,19.10
2017-09-21T22:50:17.652Z,19.15
2017-09-21T22:52:46.420Z,18.08
2017-09-21T22:55:14.195Z,16.67
2017-09-21T22:57:41.935Z,17.27
2017-09-21T23:00:09.651Z,19.00
2017-09-21T23:02:37.459Z,19.27
2017-09-21T23:05:05.196Z,18.25
2017-09-21T23:07:32.853Z,17.08
2017-09-21T23:10:01.558Z,17.42
2017-09-21T23:12:29.296Z,16.48
2017-09-21T23:14:57.137Z,16.75
2017-09-21T23:17:24.959Z,18.25
2017-09-21T23:19:52.680Z,20.77
2017-09-21T23:22:20.404Z,17.50
2017-09-21T23:24:48.876Z,19.48
2017-09-21T23:27:17.612Z,16.62
2017-09-21T23:29:45.325Z,21.48
2017-09-21T23:32:13.056Z,20.10
2017-09-21T23:34:40.785Z,15.65
2017-09-21T23:37:08.643Z,18.60
2017-09-21T23:39:36.431Z,19.92
2017-09-21T23:42:04.108Z,16.23
2017-09-21T23:44:31.945Z,17.42
2017-09-21T23:46:59.733Z,20.20
2017-09-21T23:49:27.631Z,20.65
2017-09-21T23:51:55.486Z,16.60
2017-09-21T23:54:23.325Z,21.98
2017-09-21T23:56:51.128Z,20.52
2017-09-21T23:59:19.143Z,16.00
